createdAt,value
2018-12-18T00:01:09.640Z,74.90
2018-12-18T00:03:39.469Z,70.63
2018-12-18T00:06:07.432Z,70.10
2018-12-18T00:08:36.278Z,71.13
2018-12-18T00:11:06.420Z,62.87
2018-12-18T00:13:35.068Z,66.00
2018-12-18T00:16:03.848Z,64.97
2018-12-18T00:18:32.740Z,61.90
2018-12-18T00:21:01.266Z,62.23
2018-12-18T00:23:29.807Z,66.63
2018-12-18T00:25:59.008Z,67.00
2018-12-18T00:28:27.567Z,61.37
2018-12-18T00:30:56.108Z,67.83
2018-12-18T00:33:24.708Z,75.40
2018-12-18T00:35:53.284Z,84.70
2018-12-18T00:38:21.844Z,81.13
2018-12-18T00:40:50.421Z,74.77
2018-12-18T00:43:19.292Z,73.57
2018-12-18T00:45:47.877Z,72.97
2018-12-18T00:48:16.428Z,74.63
2018-12-18T00:50:45.392Z,86.57
2018-12-18T00:53:13.954Z,80.77
2018-12-18T00:55:42.516Z,76.90
2018-12-18T00:58:11.432Z,80.93
2018-12-18T01:00:40.343Z,75.83
2018-12-18T01:03:09.003Z,81.63
2018-12-18T01:05:37.544Z,84.47
2018-12-18T01:08:06.152Z,76.67
2018-12-18T01:10:34.712Z,82.40
2018-12-18T01:13:03.420Z,84.43
2018-12-18T01:15:32.220Z,85.40
2018-12-18T01:18:00.748Z,79.40
2018-12-18T01:20:29.275Z,88.97
2018-12-18T01:22:57.740Z,92.53
2018-12-18T01:25:26.517Z,91.43
2018-12-18T01:27:54.972Z,84.27
2018-12-18T01:30:23.428Z,88.93
2018-12-18T01:32:51.912Z,93.37
2018-12-18T01:35:23.401Z,87.73
2018-12-18T01:37:52.464Z,96.03
2018-12-18T01:40:20.921Z,92.30
2018-12-18T01:42:49.392Z,100.03
2018-12-18T01:45:17.900Z,96.60
2018-12-18T01:47:47.508Z,97.53
2018-12-18T01:50:16.268Z,94.10
2018-12-18T01:52:44.716Z,98.93
2018-12-18T01:55:13.994Z,90.67
2018-12-18T01:57:42.529Z,96.53
2018-12-18T02:00:11.297Z,95.93
2018-12-18T02:02:40.173Z,101.73
2018-12-18T02:05:08.672Z,94.20
2018-12-18T02:07:37.196Z,96.73
2018-12-18T02:10:06.230Z,106.90
2018-12-18T02:12:34.693Z,94.00
2018-12-18T02:15:03.229Z,97.23
2018-12-18T02:17:31.968Z,103.47
2018-12-18T02:20:00.457Z,98.23
2018-12-18T02:22:28.953Z,101.53
2018-12-18T02:24:57.417Z,89.00
2018-12-18T02:27:25.929Z,95.93
2018-12-18T02:29:54.460Z,83.87
2018-12-18T02:32:22.924Z,90.97
2018-12-18T02:34:51.477Z,88.43
2018-12-18T02:37:20.046Z,110.08
2018-12-18T02:39:48.532Z,97.67
2018-12-18T02:42:17.328Z,93.83
2018-12-18T02:44:46.456Z,95.70
2018-12-18T02:47:15.294Z,90.87
2018-12-18T02:49:44.149Z,97.67
2018-12-18T02:52:12.660Z,106.97
2018-12-18T02:54:41.772Z,94.80
2018-12-18T02:57:10.860Z,89.57
2018-12-18T02:59:39.548Z,95.43
2018-12-18T03:02:08.036Z,97.80
2018-12-18T03:04:36.796Z,90.20
2018-12-18T03:07:05.693Z,97.33
2018-12-18T03:09:35.161Z,101.77
2018-12-18T03:12:03.696Z,99.97
2018-12-18T03:14:32.246Z,104.37
2018-12-18T03:17:00.730Z,104.50
2018-12-18T03:19:29.224Z,110.50
2018-12-18T03:21:57.707Z,100.17
2018-12-18T03:24:26.174Z,98.20
2018-12-18T03:26:54.674Z,105.93
2018-12-18T03:29:23.232Z,119.13
2018-12-18T03:31:56.081Z,110.43
2018-12-18T03:34:28.293Z,95.50
2018-12-18T03:36:53.376Z,95.00
2018-12-18T03:39:22.196Z,105.17
2018-12-18T03:41:50.733Z,97.30
2018-12-18T03:44:19.555Z,111.87
2018-12-18T03:46:48.391Z,102.80
2018-12-18T03:49:17.364Z,105.93
2018-12-18T03:51:45.916Z,104.07
2018-12-18T03:54:14.773Z,100.37
2018-12-18T03:56:43.708Z,102.67
2018-12-18T03:59:12.225Z,99.50
2018-12-18T04:01:40.701Z,112.60
2018-12-18T04:04:09.723Z,100.97
2018-12-18T04:06:38.423Z,104.40
2018-12-18T04:09:07.502Z,97.00
2018-12-18T04:11:40.239Z,101.00
2018-12-18T04:14:08.702Z,96.57
2018-12-18T04:16:37.867Z,92.77
2018-12-18T04:19:06.396Z,95.93
2018-12-18T04:21:35.012Z,96.80
2018-12-18T04:24:04.435Z,106.37
2018-12-18T04:26:32.912Z,101.50
2018-12-18T04:29:01.740Z,105.60
2018-12-18T04:31:30.215Z,106.17
2018-12-18T04:33:58.666Z,98.43
2018-12-18T04:36:27.462Z,102.67
2018-12-18T04:38:56.230Z,112.07
2018-12-18T04:41:24.709Z,107.13
2018-12-18T04:43:53.232Z,111.83
2018-12-18T04:46:21.692Z,114.93
2018-12-18T04:48:50.168Z,98.13
2018-12-18T04:51:18.679Z,100.47
2018-12-18T04:53:47.289Z,100.43
2018-12-18T04:56:16.112Z,110.00
2018-12-18T04:58:44.652Z,105.33
2018-12-18T05:01:13.202Z,105.90
2018-12-18T05:03:41.693Z,104.17
2018-12-18T05:06:10.496Z,107.63
2018-12-18T05:08:39.056Z,110.00
2018-12-18T05:11:08.355Z,118.50
2018-12-18T05:13:36.839Z,116.10
2018-12-18T05:16:05.363Z,112.27
2018-12-18T05:18:33.863Z,111.23
2018-12-18T05:21:02.419Z,117.13
2018-12-18T05:23:31.259Z,112.47
2018-12-18T05:25:59.883Z,102.77
2018-12-18T05:28:28.523Z,99.50
2018-12-18T05:30:57.260Z,100.17
2018-12-18T05:33:26.584Z,101.43
2018-12-18T05:35:55.099Z,99.20
2018-12-18T05:38:24.411Z,92.43
2018-12-18T05:40:52.879Z,101.20
2018-12-18T05:43:21.462Z,90.93
2018-12-18T05:45:50.303Z,98.90
2018-12-18T05:48:18.839Z,89.53
2018-12-18T05:50:48.271Z,91.60
2018-12-18T05:53:17.851Z,91.30
2018-12-18T05:55:46.323Z,94.80
2018-12-18T05:58:16.467Z,91.10
2018-12-18T06:00:44.967Z,90.20
2018-12-18T06:03:13.896Z,89.93
2018-12-18T06:05:42.407Z,91.10
2018-12-18T06:08:10.982Z,89.30
2018-12-18T06:10:39.427Z,84.23
2018-12-18T06:13:08.101Z,78.17
2018-12-18T06:15:36.687Z,71.50
2018-12-18T06:18:05.212Z,79.80
2018-12-18T06:20:34.212Z,75.87
2018-12-18T06:23:02.728Z,71.77
2018-12-18T06:25:31.588Z,69.40
2018-12-18T06:28:00.431Z,75.53
2018-12-18T06:30:29.036Z,87.30
2018-12-18T06:32:57.539Z,83.50
2018-12-18T06:35:26.115Z,82.97
2018-12-18T06:37:54.963Z,85.47
2018-12-18T06:40:23.496Z,86.30
2018-12-18T06:42:53.281Z,83.80
2018-12-18T06:45:20.643Z,78.20
2018-12-18T06:47:49.507Z,78.83
2018-12-18T06:50:18.367Z,83.13
2018-12-18T06:52:46.951Z,78.83
2018-12-18T06:55:15.843Z,82.60
2018-12-18T06:57:44.383Z,79.03
2018-12-18T07:00:13.520Z,86.53
2018-12-18T07:02:42.056Z,78.73
2018-12-18T07:05:16.526Z,76.07
2018-12-18T07:07:39.306Z,79.63
2018-12-18T07:10:07.806Z,86.87
2018-12-18T07:12:36.690Z,80.07
2018-12-18T07:15:05.715Z,82.53
2018-12-18T07:17:34.732Z,77.10
2018-12-18T07:20:03.694Z,87.23
2018-12-18T07:22:32.458Z,91.40
2018-12-18T07:25:00.979Z,80.60
2018-12-18T07:27:29.493Z,82.90
2018-12-18T07:29:58.034Z,80.37
2018-12-18T07:32:26.558Z,84.13
2018-12-18T07:34:55.078Z,73.83
2018-12-18T07:37:23.586Z,79.80
2018-12-18T07:39:52.106Z,73.10
2018-12-18T07:42:21.029Z,72.63
2018-12-18T07:44:49.514Z,79.60
2018-12-18T07:47:18.059Z,89.83
2018-12-18T07:49:46.610Z,90.93
2018-12-18T07:52:15.118Z,87.67
2018-12-18T07:54:43.795Z,82.83
2018-12-18T07:57:12.418Z,84.75
2018-12-18T07:59:41.218Z,81.57
2018-12-18T08:02:09.770Z,80.40
2018-12-18T08:04:38.306Z,91.53
2018-12-18T08:07:06.837Z,86.80
2018-12-18T08:09:35.690Z,91.73
2018-12-18T08:12:04.778Z,95.43
2018-12-18T08:14:33.540Z,88.03
2018-12-18T08:17:02.598Z,86.50
2018-12-18T08:19:31.138Z,80.00
2018-12-18T08:22:00.227Z,76.03
2018-12-18T08:24:28.991Z,84.10
2018-12-18T08:26:57.626Z,83.27
2018-12-18T08:29:26.346Z,78.10
2018-12-18T08:31:55.055Z,92.27
2018-12-18T08:34:24.075Z,83.77
2018-12-18T08:36:52.738Z,76.23
2018-12-18T08:39:21.466Z,90.10
2018-12-18T08:41:50.169Z,82.80
2018-12-18T08:44:18.990Z,79.97
2018-12-18T08:46:47.651Z,93.23
2018-12-18T08:49:16.311Z,98.03
2018-12-18T08:51:44.974Z,90.30
2018-12-18T08:54:44.165Z,84.37
2018-12-18T08:57:12.813Z,92.23
2018-12-18T08:59:41.509Z,77.50
2018-12-18T09:02:10.214Z,81.13
2018-12-18T09:04:39.221Z,77.60
2018-12-18T09:07:07.901Z,79.77
2018-12-18T09:09:36.877Z,83.27
2018-12-18T09:12:05.850Z,77.97
2018-12-18T09:14:34.949Z,80.23
2018-12-18T09:17:04.045Z,73.20
2018-12-18T09:19:33.091Z,70.90
2018-12-18T09:22:02.192Z,79.23
2018-12-18T09:24:30.857Z,73.90
2018-12-18T09:26:59.632Z,80.27
2018-12-18T09:29:28.299Z,83.17
2018-12-18T09:31:56.992Z,75.77
2018-12-18T09:34:25.791Z,78.27
2018-12-18T09:36:54.445Z,68.13
2018-12-18T09:39:27.297Z,73.83
2018-12-18T09:42:00.220Z,68.00
2018-12-18T09:44:29.032Z,71.43
2018-12-18T09:46:57.723Z,77.13
2018-12-18T09:49:26.697Z,70.07
2018-12-18T09:51:55.340Z,73.00
2018-12-18T09:54:24.238Z,66.20
2018-12-18T09:56:52.949Z,73.17
2018-12-18T09:59:23.300Z,69.80
2018-12-18T10:01:51.948Z,70.57
2018-12-18T10:04:20.660Z,74.33
2018-12-18T10:06:49.300Z,75.97
2018-12-18T10:09:17.942Z,73.87
2018-12-18T10:11:46.544Z,66.67
2018-12-18T10:14:15.159Z,71.07
2018-12-18T10:16:45.605Z,66.60
2018-12-18T10:19:14.510Z,71.30
2018-12-18T10:21:43.184Z,71.33
2018-12-18T10:24:11.725Z,80.43
2018-12-18T10:26:40.376Z,73.70
2018-12-18T10:29:08.985Z,70.17
2018-12-18T10:31:38.516Z,78.07
2018-12-18T10:34:07.124Z,69.83
2018-12-18T10:36:35.705Z,69.67
2018-12-18T10:39:06.540Z,69.30
2018-12-18T10:41:35.140Z,74.53
2018-12-18T10:44:03.857Z,66.13
2018-12-18T10:46:32.468Z,73.73
2018-12-18T10:49:01.016Z,73.60
2018-12-18T10:51:29.547Z,74.10
2018-12-18T10:53:58.164Z,75.63
2018-12-18T10:56:26.693Z,64.27
2018-12-18T10:58:55.232Z,75.00
2018-12-18T11:01:29.102Z,68.93
2018-12-18T11:03:58.020Z,77.87
2018-12-18T11:06:26.548Z,70.70
2018-12-18T11:08:55.796Z,67.37
2018-12-18T11:11:24.368Z,71.13
2018-12-18T11:13:52.921Z,65.80
2018-12-18T11:16:21.504Z,71.13
2018-12-18T11:18:50.057Z,75.20
2018-12-18T11:21:19.004Z,71.03
2018-12-18T11:23:47.932Z,81.73
2018-12-18T11:26:16.620Z,75.77
2018-12-18T11:28:45.200Z,75.73
2018-12-18T11:31:13.920Z,73.07
2018-12-18T11:34:13.203Z,72.43
2018-12-18T11:36:42.411Z,65.83
2018-12-18T11:39:11.296Z,72.87
2018-12-18T11:41:40.155Z,71.03
2018-12-18T11:44:09.012Z,70.93
2018-12-18T11:46:38.019Z,69.80
2018-12-18T11:49:06.572Z,74.70
2018-12-18T11:51:35.460Z,72.60
2018-12-18T11:54:04.903Z,77.23
2018-12-18T11:56:33.732Z,67.97
2018-12-18T11:59:02.348Z,82.17
2018-12-18T12:01:30.989Z,74.70
2018-12-18T12:03:59.588Z,71.37
2018-12-18T12:06:28.183Z,79.90
2018-12-18T12:08:56.739Z,65.10
2018-12-18T12:11:25.591Z,73.87
2018-12-18T12:13:54.299Z,69.17
2018-12-18T12:16:22.855Z,76.97
2018-12-18T12:18:51.439Z,71.80
2018-12-18T12:21:20.091Z,63.95
2018-12-18T12:23:48.775Z,75.63
2018-12-18T12:26:22.659Z,71.07
2018-12-18T12:28:51.522Z,78.63
2018-12-18T12:31:20.075Z,73.90
2018-12-18T12:33:48.655Z,75.63
2018-12-18T12:36:17.175Z,73.10
2018-12-18T12:38:46.275Z,82.43
2018-12-18T12:41:15.047Z,77.67
2018-12-18T12:43:43.711Z,67.83
2018-12-18T12:46:12.283Z,80.27
2018-12-18T12:48:46.476Z,71.57
2018-12-18T12:51:15.034Z,73.63
2018-12-18T12:53:43.754Z,72.00
2018-12-18T12:56:12.263Z,75.67
2018-12-18T12:58:41.130Z,76.23
2018-12-18T13:01:09.689Z,73.28
2018-12-18T13:03:41.890Z,78.00
2018-12-18T13:06:10.738Z,78.47
2018-12-18T13:08:40.126Z,81.23
2018-12-18T13:11:08.669Z,71.27
2018-12-18T13:13:37.439Z,76.77
2018-12-18T13:16:06.309Z,71.43
2018-12-18T13:18:34.922Z,69.00
2018-12-18T13:21:03.451Z,75.33
2018-12-18T13:23:32.259Z,78.07
2018-12-18T13:26:01.122Z,70.23
2018-12-18T13:28:29.604Z,64.73
2018-12-18T13:30:58.073Z,66.83
2018-12-18T13:33:26.649Z,70.53
2018-12-18T13:35:55.585Z,73.80
2018-12-18T13:38:24.091Z,66.77
2018-12-18T13:40:52.600Z,69.43
2018-12-18T13:43:21.616Z,72.67
2018-12-18T13:45:50.489Z,75.63
2018-12-18T13:48:19.080Z,65.27
2018-12-18T13:50:47.609Z,75.83
2018-12-18T13:53:16.137Z,77.67
2018-12-18T13:55:44.968Z,75.73
2018-12-18T13:58:13.456Z,65.33
2018-12-18T14:00:41.997Z,76.00
2018-12-18T14:03:10.545Z,73.27
2018-12-18T14:05:39.060Z,77.43
2018-12-18T14:08:07.604Z,84.17
2018-12-18T14:10:36.445Z,81.13
2018-12-18T14:13:05.056Z,99.77
2018-12-18T14:18:32.872Z,74.90
2018-12-18T14:21:01.528Z,72.27
2018-12-18T14:23:30.128Z,72.80
2018-12-18T14:25:58.692Z,79.10
2018-12-18T14:28:27.238Z,73.47
2018-12-18T14:30:56.105Z,74.43
2018-12-18T14:33:24.648Z,80.40
2018-12-18T14:35:53.276Z,63.90
2018-12-18T14:38:21.928Z,63.55
2018-12-18T14:40:50.548Z,66.57
2018-12-18T14:43:19.252Z,65.07
2018-12-18T14:45:48.014Z,62.83
2018-12-18T14:56:22.570Z,82.70
2018-12-18T14:58:51.336Z,89.03
2018-12-18T15:01:20.040Z,81.17
2018-12-18T15:03:48.841Z,78.87
2018-12-18T15:06:17.517Z,72.95
2018-12-18T15:08:46.645Z,82.53
2018-12-18T15:14:32.969Z,85.40
2018-12-18T15:17:07.537Z,91.97
2018-12-18T15:19:36.735Z,79.90
2018-12-18T15:22:05.785Z,82.50
2018-12-18T15:24:34.601Z,89.63
2018-12-18T15:27:03.296Z,97.13
2018-12-18T15:29:32.017Z,85.97
2018-12-18T15:32:00.741Z,94.40
2018-12-18T15:34:29.577Z,92.97
2018-12-18T15:36:58.430Z,76.93
2018-12-18T15:42:17.409Z,80.59
2018-12-18T15:44:47.477Z,96.00
2018-12-18T15:47:21.971Z,93.90
2018-12-18T15:49:51.086Z,78.50
2018-12-18T15:53:04.169Z,82.27
2018-12-18T15:55:32.737Z,95.73
2018-12-18T15:58:01.423Z,87.90
2018-12-18T16:00:30.613Z,95.27
2018-12-18T16:03:01.585Z,85.30
2018-12-18T16:05:30.379Z,85.77
2018-12-18T16:07:58.978Z,93.87
2018-12-18T16:10:42.158Z,104.17
2018-12-18T16:21:45.969Z,89.00
2018-12-18T16:50:34.850Z,89.93
2018-12-18T16:53:25.413Z,97.67
2018-12-18T17:12:05.653Z,87.23
2018-12-18T17:20:27.410Z,89.47
2018-12-18T17:56:16.381Z,79.70
2018-12-18T17:58:45.136Z,79.23
2018-12-18T18:01:13.885Z,85.50
2018-12-18T18:03:42.745Z,80.37
2018-12-18T18:06:11.901Z,85.00
2018-12-18T18:11:39.334Z,76.20
2018-12-18T18:14:08.302Z,81.67
2018-12-18T18:16:37.312Z,85.13
2018-12-18T18:19:07.348Z,80.83
2018-12-18T18:21:36.825Z,86.10
2018-12-18T18:24:05.913Z,87.47
2018-12-18T18:26:34.937Z,90.60
2018-12-18T18:29:08.549Z,84.37
2018-12-18T18:31:37.649Z,89.10
2018-12-18T18:34:06.617Z,75.20
2018-12-18T18:36:56.293Z,84.90
2018-12-18T19:06:01.532Z,76.80
2018-12-18T19:08:35.232Z,79.97
2018-12-18T20:26:20.485Z,89.57
2018-12-18T21:14:36.724Z,93.03
2018-12-18T21:17:05.456Z,94.80
2018-12-18T21:19:34.216Z,99.57
2018-12-18T21:22:03.467Z,90.07
2018-12-18T21:24:31.983Z,99.67
2018-12-18T21:27:01.022Z,90.10
2018-12-18T21:29:29.934Z,102.87
2018-12-18T21:31:58.866Z,102.87
2018-12-18T21:34:28.629Z,103.40
2018-12-18T21:36:57.401Z,93.17
2018-12-18T21:39:26.066Z,94.20
2018-12-18T21:41:55.015Z,93.13
2018-12-18T21:50:01.790Z,96.50
2018-12-18T21:52:30.334Z,91.67
2018-12-18T21:54:58.842Z,92.90
2018-12-18T21:57:28.262Z,86.90
2018-12-18T21:59:58.026Z,87.73
2018-12-18T22:02:26.591Z,92.37
2018-12-18T22:04:55.060Z,87.30
2018-12-18T22:13:15.318Z,87.72
2018-12-18T22:19:15.034Z,87.03
2018-12-18T22:21:45.926Z,97.03
2018-12-18T22:24:14.577Z,95.63
2018-12-18T22:26:47.090Z,90.03
2018-12-18T22:29:15.701Z,94.63
2018-12-18T22:31:46.074Z,84.83
2018-12-18T22:34:15.217Z,93.30
2018-12-18T22:36:44.205Z,87.33
2018-12-18T22:39:12.837Z,79.23
2018-12-18T22:41:41.408Z,79.67
2018-12-18T22:44:15.249Z,91.87
2018-12-18T22:46:43.881Z,87.03
2018-12-18T22:49:12.417Z,84.30
2018-12-18T22:51:41.289Z,86.53
2018-12-18T22:54:09.813Z,77.43
2018-12-18T22:56:38.354Z,78.10
2018-12-18T22:59:08.012Z,86.23
2018-12-18T23:01:36.624Z,84.70
2018-12-18T23:04:05.100Z,88.03
2018-12-18T23:06:33.620Z,80.13
2018-12-18T23:09:02.288Z,88.50
2018-12-18T23:11:30.908Z,73.50
2018-12-18T23:13:59.504Z,81.60
2018-12-18T23:16:28.081Z,80.23
2018-12-18T23:18:56.833Z,90.00
2018-12-18T23:21:25.675Z,84.97
2018-12-18T23:23:54.151Z,82.57
2018-12-18T23:26:22.698Z,72.67
2018-12-18T23:28:51.623Z,81.67
2018-12-18T23:31:20.423Z,79.27
2018-12-18T23:33:48.959Z,78.47
2018-12-18T23:36:17.859Z,80.22
2018-12-18T23:38:46.330Z,86.73
2018-12-18T23:41:14.810Z,73.10
2018-12-18T23:43:43.302Z,83.70
2018-12-18T23:46:11.758Z,85.87
2018-12-18T23:48:40.512Z,80.87
2018-12-18T23:51:09.042Z,82.00
2018-12-18T23:53:37.522Z,84.67
2018-12-18T23:56:06.043Z,80.77
2018-12-18T23:58:34.630Z,86.30
